createdAt,value
2023-04-18T00:00:23.616Z,95197.00
2023-04-18T00:01:23.640Z,95195.00
2023-04-18T00:02:23.864Z,95193.00
2023-04-18T00:03:23.994Z,95195.00
2023-04-18T00:04:23.926Z,95197.00
2023-04-18T00:05:23.831Z,95193.00
2023-04-18T00:06:23.865Z,95195.00
2023-04-18T00:07:23.954Z,95195.00
2023-04-18T00:08:23.990Z,95195.00
2023-04-18T00:09:24.018Z,95193.00
2023-04-18T00:10:24.077Z,95187.00
2023-04-18T00:11:24.122Z,95185.00
2023-04-18T00:12:24.173Z,95187.00
2023-04-18T00:13:24.192Z,95185.00
2023-04-18T00:14:24.273Z,95189.00
2023-04-18T00:15:24.315Z,95185.00
2023-04-18T00:16:24.386Z,95185.00
2023-04-18T00:17:24.454Z,95185.00
2023-04-18T00:18:24.477Z,95181.00
2023-04-18T00:19:24.528Z,95183.00
2023-04-18T00:20:24.586Z,95183.00
2023-04-18T00:21:24.642Z,95185.00
2023-04-18T00:22:24.672Z,95185.00
2023-04-18T00:23:24.739Z,95185.00
2023-04-18T00:24:24.808Z,95187.00
2023-04-18T00:25:24.846Z,95183.00
2023-04-18T00:26:24.887Z,95185.00
2023-04-18T00:27:24.956Z,95185.00
2023-04-18T00:28:24.984Z,95183.00
2023-04-18T00:29:25.049Z,95185.00
2023-04-18T00:30:25.099Z,95185.00
2023-04-18T00:31:25.238Z,95189.00
2023-04-18T00:32:25.241Z,95187.00
2023-04-18T00:33:25.263Z,95187.00
2023-04-18T00:34:25.314Z,95187.00
2023-04-18T00:35:25.360Z,95187.00
2023-04-18T00:36:25.420Z,95185.00
2023-04-18T00:37:25.466Z,95187.00
2023-04-18T00:38:25.551Z,95183.00
2023-04-18T00:39:25.591Z,95185.00
2023-04-18T00:40:25.683Z,95185.00
2023-04-18T00:41:25.707Z,95183.00
2023-04-18T00:42:25.774Z,95187.00
2023-04-18T00:43:25.837Z,95187.00
2023-04-18T00:44:25.916Z,95185.00
2023-04-18T00:45:25.967Z,95185.00
2023-04-18T00:46:26.070Z,95183.00
2023-04-18T00:47:26.132Z,95183.00
2023-04-18T00:48:26.134Z,95183.00
2023-04-18T00:49:26.222Z,95181.00
2023-04-18T00:50:26.279Z,95179.00
2023-04-18T00:51:26.324Z,95181.00
2023-04-18T00:52:26.380Z,95179.00
2023-04-18T00:53:26.453Z,95179.00
2023-04-18T00:54:26.554Z,95179.00
2023-04-18T00:55:26.634Z,95181.00
2023-04-18T00:56:26.661Z,95177.00
2023-04-18T00:57:26.687Z,95179.00
2023-04-18T00:58:26.839Z,95177.00
2023-04-18T00:59:26.812Z,95177.00
2023-04-18T01:00:26.937Z,95173.00
2023-04-18T01:01:26.994Z,95175.00
2023-04-18T01:02:27.125Z,95175.00
2023-04-18T01:03:27.201Z,95173.00
2023-04-18T01:04:27.243Z,95173.00
2023-04-18T01:05:27.223Z,95173.00
2023-04-18T01:06:27.272Z,95175.00
2023-04-18T01:07:27.321Z,95173.00
2023-04-18T01:08:27.384Z,95173.00
2023-04-18T01:09:27.458Z,95175.00
2023-04-18T01:10:27.501Z,95177.00
2023-04-18T01:11:27.569Z,95177.00
2023-04-18T01:12:27.639Z,95177.00
2023-04-18T01:13:27.670Z,95175.00
2023-04-18T01:14:27.745Z,95175.00
2023-04-18T01:15:27.773Z,95175.00
2023-04-18T01:16:27.895Z,95175.00
2023-04-18T01:17:27.915Z,95171.00
2023-04-18T01:18:27.995Z,95175.00
2023-04-18T01:19:28.045Z,95175.00
2023-04-18T01:20:28.119Z,95171.00
2023-04-18T01:21:28.149Z,95169.00
2023-04-18T01:22:28.245Z,95169.00
2023-04-18T01:23:28.311Z,95167.00
2023-04-18T01:24:28.363Z,95169.00
2023-04-18T01:25:28.415Z,95167.00
2023-04-18T01:26:28.468Z,95167.00
2023-04-18T01:27:28.488Z,95169.00
2023-04-18T01:28:28.587Z,95165.00
2023-04-18T01:29:28.661Z,95163.00
2023-04-18T01:30:28.701Z,95163.00
2023-04-18T01:31:28.751Z,95163.00
2023-04-18T01:32:28.793Z,95163.00
2023-04-18T01:33:28.825Z,95161.00
2023-04-18T01:34:28.914Z,95161.00
2023-04-18T01:35:28.918Z,95161.00
2023-04-18T01:36:28.988Z,95159.00
2023-04-18T01:37:29.039Z,95161.00
2023-04-18T01:38:29.078Z,95159.00
2023-04-18T01:39:29.178Z,95161.00
2023-04-18T01:40:29.257Z,95157.00
2023-04-18T01:41:29.257Z,95157.00
2023-04-18T01:42:29.312Z,95157.00
2023-04-18T01:43:29.385Z,95159.00
2023-04-18T01:44:29.470Z,95157.00
2023-04-18T01:45:29.528Z,95157.00
2023-04-18T01:46:29.622Z,95155.00
2023-04-18T01:47:29.644Z,95159.00
2023-04-18T01:48:29.713Z,95157.00
2023-04-18T01:49:29.801Z,95159.00
2023-04-18T01:50:29.806Z,95159.00
2023-04-18T01:51:29.941Z,95159.00
2023-04-18T01:52:29.964Z,95161.00
2023-04-18T01:53:30.020Z,95159.00
2023-04-18T01:54:30.109Z,95161.00
2023-04-18T01:55:30.139Z,95159.00
2023-04-18T01:56:30.164Z,95161.00
2023-04-18T01:57:30.256Z,95163.00
2023-04-18T01:58:30.288Z,95161.00
2023-04-18T01:59:30.360Z,95163.00
2023-04-18T02:00:30.456Z,95163.00
2023-04-18T02:01:30.468Z,95165.00
2023-04-18T02:02:30.622Z,95165.00
2023-04-18T02:03:30.757Z,95163.00
2023-04-18T02:04:30.614Z,95163.00
2023-04-18T02:05:30.656Z,95163.00
2023-04-18T02:06:30.720Z,95161.00
2023-04-18T02:07:30.740Z,95165.00
2023-04-18T02:08:30.785Z,95163.00
2023-04-18T02:09:30.831Z,95163.00
2023-04-18T02:10:30.866Z,95165.00
2023-04-18T02:11:30.909Z,95163.00
2023-04-18T02:12:30.972Z,95165.00
2023-04-18T02:13:31.006Z,95165.00
2023-04-18T02:14:31.078Z,95163.00
2023-04-18T02:15:31.110Z,95165.00
2023-04-18T02:16:31.190Z,95159.00
2023-04-18T02:17:31.178Z,95161.00
2023-04-18T02:18:31.204Z,95161.00
2023-04-18T02:19:31.180Z,95159.00
2023-04-18T02:20:31.200Z,95161.00
2023-04-18T02:21:31.244Z,95159.00
2023-04-18T02:22:31.331Z,95163.00
2023-04-18T02:23:31.435Z,95163.00
2023-04-18T02:24:31.389Z,95161.00
2023-04-18T02:25:31.434Z,95165.00
2023-04-18T02:26:31.452Z,95161.00
2023-04-18T02:27:31.476Z,95163.00
2023-04-18T02:28:31.508Z,95165.00
2023-04-18T02:29:31.523Z,95167.00
2023-04-18T02:30:31.538Z,95167.00
2023-04-18T02:31:31.635Z,95163.00
2023-04-18T02:32:31.669Z,95163.00
2023-04-18T02:33:31.642Z,95163.00
2023-04-18T02:34:31.714Z,95163.00
2023-04-18T02:35:31.737Z,95169.00
2023-04-18T02:36:31.710Z,95169.00
2023-04-18T02:37:31.719Z,95165.00
2023-04-18T02:38:31.759Z,95165.00
2023-04-18T02:39:31.795Z,95165.00
2023-04-18T02:40:31.743Z,95165.00
2023-04-18T02:41:31.794Z,95165.00
2023-04-18T02:42:31.798Z,95163.00
2023-04-18T02:43:31.832Z,95165.00
2023-04-18T02:44:31.821Z,95163.00
2023-04-18T02:45:31.862Z,95165.00
2023-04-18T02:46:31.858Z,95165.00
2023-04-18T02:47:40.518Z,95167.00
2023-04-18T02:48:32.875Z,95165.00
2023-04-18T02:49:31.863Z,95163.00
2023-04-18T02:50:31.857Z,95163.00
2023-04-18T02:51:31.828Z,95167.00
2023-04-18T02:52:31.811Z,95163.00
2023-04-18T02:53:31.797Z,95161.00
2023-04-18T02:54:31.808Z,95163.00
2023-04-18T02:55:31.779Z,95161.00
2023-04-18T02:56:31.787Z,95161.00
2023-04-18T02:57:31.772Z,95159.00
2023-04-18T02:58:31.787Z,95159.00
2023-04-18T02:59:32.022Z,95157.00
2023-04-18T03:00:31.751Z,95159.00
2023-04-18T03:01:31.781Z,95157.00
2023-04-18T03:02:32.153Z,95159.00
2023-04-18T03:03:31.777Z,95159.00
2023-04-18T03:04:31.725Z,95159.00
2023-04-18T03:05:31.706Z,95157.00
2023-04-18T03:06:31.745Z,95155.00
2023-04-18T03:07:31.715Z,95155.00
2023-04-18T03:08:31.721Z,95153.00
2023-04-18T03:09:31.704Z,95159.00
2023-04-18T03:10:31.700Z,95157.00
2023-04-18T03:11:31.790Z,95153.00
2023-04-18T03:12:31.659Z,95155.00
2023-04-18T03:13:31.674Z,95157.00
2023-04-18T03:14:31.655Z,95155.00
2023-04-18T03:15:31.663Z,95155.00
2023-04-18T03:16:31.668Z,95155.00
2023-04-18T03:17:31.728Z,95155.00
2023-04-18T03:18:31.606Z,95151.00
2023-04-18T03:19:31.618Z,95155.00
2023-04-18T03:20:31.603Z,95155.00
2023-04-18T03:21:31.617Z,95155.00
2023-04-18T03:22:31.603Z,95155.00
2023-04-18T03:23:31.610Z,95153.00
2023-04-18T03:24:31.595Z,95149.00
2023-04-18T03:25:31.581Z,95151.00
2023-04-18T03:26:31.562Z,95149.00
2023-04-18T03:27:31.558Z,95149.00
2023-04-18T03:28:31.555Z,95151.00
2023-04-18T03:29:31.575Z,95151.00
2023-04-18T03:30:31.522Z,95149.00
2023-04-18T03:31:31.585Z,95149.00
2023-04-18T03:32:31.550Z,95149.00
2023-04-18T03:33:31.515Z,95151.00
2023-04-18T03:34:31.502Z,95149.00
2023-04-18T03:35:31.508Z,95151.00
2023-04-18T03:36:31.490Z,95155.00
2023-04-18T03:37:31.487Z,95151.00
2023-04-18T03:38:31.461Z,95153.00
2023-04-18T03:39:31.476Z,95157.00
2023-04-18T03:40:31.444Z,95153.00
2023-04-18T03:41:31.457Z,95153.00
2023-04-18T03:42:31.454Z,95153.00
2023-04-18T03:43:31.459Z,95151.00
2023-04-18T03:44:31.454Z,95153.00
2023-04-18T03:45:31.424Z,95153.00
2023-04-18T03:46:31.475Z,95138.00
2023-04-18T03:47:31.475Z,95142.00
2023-04-18T03:48:31.429Z,95140.00
2023-04-18T03:49:31.418Z,95151.00
2023-04-18T03:50:31.392Z,95149.00
2023-04-18T03:51:31.364Z,95151.00
2023-04-18T03:52:31.422Z,95149.00
2023-04-18T03:53:31.357Z,95149.00
2023-04-18T03:54:31.376Z,95142.00
2023-04-18T03:55:31.349Z,95149.00
2023-04-18T03:56:31.349Z,95149.00
2023-04-18T03:57:31.350Z,95153.00
2023-04-18T03:58:31.357Z,95151.00
2023-04-18T03:59:31.338Z,95153.00
2023-04-18T04:00:31.407Z,95142.00
2023-04-18T04:01:31.355Z,95149.00
2023-04-18T04:02:31.455Z,95153.00
2023-04-18T04:03:31.406Z,95149.00
2023-04-18T04:04:31.333Z,95151.00
2023-04-18T04:05:31.317Z,95151.00
2023-04-18T04:06:31.269Z,95149.00
2023-04-18T04:07:31.313Z,95153.00
2023-04-18T04:08:31.274Z,95155.00
2023-04-18T04:09:31.268Z,95155.00
2023-04-18T04:10:31.226Z,95151.00
2023-04-18T04:11:31.238Z,95151.00
2023-04-18T04:12:31.233Z,95151.00
2023-04-18T04:13:31.208Z,95153.00
2023-04-18T04:14:31.243Z,95153.00
2023-04-18T04:15:31.204Z,95155.00
2023-04-18T04:16:31.191Z,95151.00
2023-04-18T04:17:31.207Z,95153.00
2023-04-18T04:18:31.259Z,95153.00
2023-04-18T04:19:31.151Z,95155.00
2023-04-18T04:20:31.162Z,95155.00
2023-04-18T04:21:31.158Z,95155.00
2023-04-18T04:22:31.147Z,95159.00
2023-04-18T04:23:31.154Z,95157.00
2023-04-18T04:24:31.133Z,95159.00
2023-04-18T04:25:31.143Z,95161.00
2023-04-18T04:26:31.111Z,95163.00
2023-04-18T04:27:31.127Z,95161.00
2023-04-18T04:28:31.137Z,95163.00
2023-04-18T04:29:31.119Z,95165.00
2023-04-18T04:30:31.095Z,95163.00
2023-04-18T04:31:31.109Z,95165.00
2023-04-18T04:32:31.155Z,95165.00
2023-04-18T04:33:31.089Z,95165.00
2023-04-18T04:34:31.100Z,95167.00
2023-04-18T04:35:31.107Z,95167.00
2023-04-18T04:36:31.054Z,95167.00
2023-04-18T04:37:31.159Z,95165.00
2023-04-18T04:38:31.348Z,95167.00
2023-04-18T04:39:31.067Z,95167.00
2023-04-18T04:40:31.096Z,95167.00
2023-04-18T04:41:31.074Z,95167.00
2023-04-18T04:42:31.074Z,95169.00
2023-04-18T04:43:31.104Z,95171.00
2023-04-18T04:44:31.102Z,95169.00
2023-04-18T04:45:31.139Z,95171.00
2023-04-18T04:46:31.071Z,95169.00
2023-04-18T04:47:31.158Z,95169.00
2023-04-18T04:48:31.078Z,95171.00
2023-04-18T04:49:31.070Z,95173.00
2023-04-18T04:50:31.084Z,95171.00
2023-04-18T04:51:31.059Z,95175.00
2023-04-18T04:52:31.057Z,95177.00
2023-04-18T04:53:31.079Z,95175.00
2023-04-18T04:54:31.095Z,95179.00
2023-04-18T04:55:31.088Z,95179.00
2023-04-18T04:56:31.081Z,95179.00
2023-04-18T04:57:31.076Z,95179.00
2023-04-18T04:58:31.107Z,95179.00
2023-04-18T04:59:31.073Z,95181.00
2023-04-18T05:00:31.108Z,95181.00
2023-04-18T05:01:31.157Z,95181.00
2023-04-18T05:02:31.226Z,95179.00
2023-04-18T05:03:31.308Z,95181.00
2023-04-18T05:04:31.234Z,95179.00
2023-04-18T05:05:31.112Z,95181.00
2023-04-18T05:06:31.130Z,95181.00
2023-04-18T05:07:31.121Z,95183.00
2023-04-18T05:08:31.146Z,95183.00
2023-04-18T05:09:31.186Z,95181.00
2023-04-18T05:10:31.189Z,95181.00
2023-04-18T05:11:31.196Z,95183.00
2023-04-18T05:12:31.166Z,95185.00
2023-04-18T05:13:31.183Z,95187.00
2023-04-18T05:14:31.180Z,95185.00
2023-04-18T05:15:31.197Z,95187.00
2023-04-18T05:16:31.219Z,95185.00
2023-04-18T05:17:31.207Z,95187.00
2023-04-18T05:18:33.002Z,95189.00
2023-04-18T05:19:31.203Z,95187.00
2023-04-18T05:20:31.230Z,95191.00
2023-04-18T05:21:31.193Z,95189.00
2023-04-18T05:22:31.222Z,95187.00
2023-04-18T05:23:31.240Z,95191.00
2023-04-18T05:24:31.167Z,95189.00
2023-04-18T05:25:31.183Z,95189.00
2023-04-18T05:26:31.188Z,95191.00
2023-04-18T05:27:31.174Z,95189.00
2023-04-18T05:28:31.159Z,95189.00
2023-04-18T05:29:31.166Z,95189.00
2023-04-18T05:30:31.167Z,95187.00
2023-04-18T05:31:31.138Z,95189.00
2023-04-18T05:32:31.135Z,95187.00
2023-04-18T05:33:31.108Z,95185.00
2023-04-18T05:34:31.118Z,95187.00
2023-04-18T05:35:31.103Z,95185.00
2023-04-18T05:36:31.112Z,95187.00
2023-04-18T05:37:31.101Z,95187.00
2023-04-18T05:38:31.089Z,95189.00
2023-04-18T05:39:31.081Z,95187.00
2023-04-18T05:40:31.563Z,95189.00
2023-04-18T05:41:31.058Z,95189.00
2023-04-18T05:42:31.067Z,95191.00
2023-04-18T05:43:31.049Z,95195.00
2023-04-18T05:44:31.041Z,95193.00
2023-04-18T05:45:31.051Z,95199.00
2023-04-18T05:46:31.103Z,95199.00
2023-04-18T05:47:31.062Z,95202.00
2023-04-18T05:48:31.036Z,95200.00
2023-04-18T05:49:30.997Z,95200.00
2023-04-18T05:50:31.031Z,95202.00
2023-04-18T05:51:30.973Z,95204.00
2023-04-18T05:52:31.000Z,95200.00
2023-04-18T05:53:31.003Z,95200.00
2023-04-18T05:54:30.983Z,95200.00
2023-04-18T05:55:30.963Z,95202.00
2023-04-18T05:56:30.983Z,95202.00
2023-04-18T05:57:30.988Z,95206.00
2023-04-18T05:58:30.939Z,95208.00
2023-04-18T05:59:30.954Z,95206.00
2023-04-18T06:00:30.912Z,95208.00
2023-04-18T06:01:30.999Z,95208.00
2023-04-18T06:02:31.028Z,95208.00
2023-04-18T06:03:31.097Z,95208.00
2023-04-18T06:04:31.040Z,95208.00
2023-04-18T06:05:31.346Z,95212.00
2023-04-18T06:06:30.887Z,95214.00
2023-04-18T06:07:31.266Z,95212.00
2023-04-18T06:08:30.855Z,95214.00
2023-04-18T06:09:30.865Z,95216.00
2023-04-18T06:10:30.890Z,95216.00
2023-04-18T06:11:30.822Z,95216.00
2023-04-18T06:12:30.865Z,95216.00
2023-04-18T06:13:30.845Z,95216.00
2023-04-18T06:14:30.848Z,95218.00
2023-04-18T06:15:30.848Z,95218.00
2023-04-18T06:16:30.921Z,95220.00
2023-04-18T06:17:30.921Z,95218.00
2023-04-18T06:18:30.930Z,95218.00
2023-04-18T06:19:30.979Z,95220.00
2023-04-18T06:20:31.021Z,95220.00
2023-04-18T06:21:31.051Z,95222.00
2023-04-18T06:22:31.090Z,95220.00
2023-04-18T06:23:31.162Z,95222.00
2023-04-18T06:24:31.373Z,95222.00
2023-04-18T06:25:31.223Z,95222.00
2023-04-18T06:26:31.241Z,95220.00
2023-04-18T06:27:32.044Z,95226.00
2023-04-18T06:28:31.357Z,95224.00
2023-04-18T06:29:31.347Z,95226.00
2023-04-18T06:30:31.427Z,95226.00
2023-04-18T06:31:31.498Z,95224.00
2023-04-18T06:32:31.563Z,95226.00
2023-04-18T06:33:31.534Z,95226.00
2023-04-18T06:34:31.589Z,95228.00
2023-04-18T06:35:31.601Z,95228.00
2023-04-18T06:36:31.659Z,95226.00
2023-04-18T06:37:31.695Z,95228.00
2023-04-18T06:38:31.766Z,95226.00
2023-04-18T06:39:31.926Z,95226.00
2023-04-18T06:40:31.826Z,95226.00
2023-04-18T06:41:31.825Z,95224.00
2023-04-18T06:42:31.902Z,95226.00
2023-04-18T06:43:31.957Z,95226.00
2023-04-18T06:44:31.965Z,95224.00
2023-04-18T06:45:32.112Z,95222.00
2023-04-18T06:46:32.061Z,95222.00
2023-04-18T06:47:32.072Z,95222.00
2023-04-18T06:48:32.080Z,95222.00
2023-04-18T06:49:32.128Z,95224.00
2023-04-18T06:50:32.149Z,95224.00
2023-04-18T06:51:32.228Z,95222.00
2023-04-18T06:52:32.234Z,95226.00
2023-04-18T06:53:32.264Z,95224.00
2023-04-18T06:54:32.276Z,95228.00
2023-04-18T06:55:32.320Z,95226.00
2023-04-18T06:56:34.417Z,95226.00
2023-04-18T06:57:32.346Z,95226.00
2023-04-18T06:58:32.319Z,95224.00
2023-04-18T06:59:32.337Z,95228.00
2023-04-18T07:00:32.345Z,95224.00
2023-04-18T07:01:32.411Z,95226.00
2023-04-18T07:02:32.451Z,95224.00
2023-04-18T07:03:32.369Z,95222.00
2023-04-18T07:04:32.352Z,95222.00
2023-04-18T07:05:32.542Z,95224.00
2023-04-18T07:06:33.047Z,95222.00
2023-04-18T07:07:32.244Z,95222.00
2023-04-18T07:08:32.263Z,95220.00
2023-04-18T07:09:32.270Z,95222.00
2023-04-18T07:10:32.242Z,95220.00
2023-04-18T07:11:32.268Z,95220.00
2023-04-18T07:12:32.235Z,95222.00
2023-04-18T07:13:32.229Z,95220.00
2023-04-18T07:14:34.082Z,95220.00
2023-04-18T07:15:32.207Z,95220.00
2023-04-18T07:16:32.235Z,95218.00
2023-04-18T07:17:32.237Z,95220.00
2023-04-18T07:18:37.965Z,95216.00
2023-04-18T07:19:33.159Z,95218.00
2023-04-18T07:20:32.174Z,95220.00
2023-04-18T07:21:32.148Z,95216.00
2023-04-18T07:22:32.137Z,95216.00
2023-04-18T07:23:32.118Z,95216.00
2023-04-18T07:24:32.127Z,95214.00
2023-04-18T07:25:32.156Z,95216.00
2023-04-18T07:26:32.112Z,95216.00
2023-04-18T07:27:32.132Z,95216.00
2023-04-18T07:28:32.147Z,95218.00
2023-04-18T07:29:32.076Z,95218.00
2023-04-18T07:30:32.117Z,95224.00
2023-04-18T07:31:32.185Z,95222.00
2023-04-18T07:32:32.090Z,95224.00
2023-04-18T07:33:32.070Z,95222.00
2023-04-18T07:34:32.049Z,95224.00
2023-04-18T07:35:32.086Z,95222.00
2023-04-18T07:36:32.047Z,95222.00
2023-04-18T07:37:32.021Z,95222.00
2023-04-18T07:38:32.024Z,95226.00
2023-04-18T07:39:32.056Z,95224.00
2023-04-18T07:40:32.073Z,95226.00
2023-04-18T07:41:32.057Z,95226.00
2023-04-18T07:42:32.101Z,95222.00
2023-04-18T07:43:32.176Z,95226.00
2023-04-18T07:44:32.108Z,95226.00
2023-04-18T07:45:32.582Z,95226.00
2023-04-18T07:46:32.172Z,95226.00
2023-04-18T07:47:33.254Z,95224.00
2023-04-18T07:48:32.177Z,95228.00
2023-04-18T07:49:32.200Z,95226.00
2023-04-18T07:50:32.605Z,95230.00
2023-04-18T07:51:32.319Z,95228.00
2023-04-18T07:52:32.344Z,95230.00
2023-04-18T07:53:32.423Z,95230.00
2023-04-18T07:54:32.462Z,95228.00
2023-04-18T07:55:32.511Z,95228.00
2023-04-18T07:56:32.567Z,95228.00
2023-04-18T07:57:32.630Z,95228.00
2023-04-18T07:58:32.690Z,95224.00
2023-04-18T07:59:32.731Z,95224.00
2023-04-18T08:00:32.822Z,95226.00
2023-04-18T08:01:32.811Z,95230.00
2023-04-18T08:02:33.011Z,95228.00
2023-04-18T08:03:32.988Z,95232.00
2023-04-18T08:04:33.169Z,95230.00
2023-04-18T08:05:33.023Z,95230.00
2023-04-18T08:06:32.973Z,95228.00
2023-04-18T08:07:33.003Z,95228.00
2023-04-18T08:08:33.021Z,95230.00
2023-04-18T08:09:33.013Z,95228.00
2023-04-18T08:10:33.048Z,95230.00
2023-04-18T08:11:33.090Z,95230.00
2023-04-18T08:12:33.081Z,95228.00
2023-04-18T08:13:33.072Z,95226.00
2023-04-18T08:14:33.070Z,95224.00
2023-04-18T08:15:33.213Z,95224.00
2023-04-18T08:16:33.087Z,95222.00
2023-04-18T08:17:33.098Z,95222.00
2023-04-18T08:18:33.111Z,95220.00
2023-04-18T08:19:33.083Z,95220.00
2023-04-18T08:20:33.073Z,95220.00
2023-04-18T08:21:33.098Z,95216.00
2023-04-18T08:22:33.135Z,95220.00
2023-04-18T08:23:33.159Z,95220.00
2023-04-18T08:24:33.174Z,95218.00
2023-04-18T08:25:33.172Z,95218.00
2023-04-18T08:26:33.234Z,95220.00
2023-04-18T08:27:33.242Z,95220.00
2023-04-18T08:28:33.274Z,95218.00
2023-04-18T08:29:33.301Z,95216.00
2023-04-18T08:30:33.336Z,95218.00
2023-04-18T08:31:33.467Z,95212.00
2023-04-18T08:32:33.483Z,95210.00
2023-04-18T08:33:33.530Z,95212.00
2023-04-18T08:34:33.545Z,95212.00
2023-04-18T08:35:33.623Z,95214.00
2023-04-18T08:36:34.106Z,95220.00
2023-04-18T08:37:33.794Z,95210.00
2023-04-18T08:38:33.804Z,95214.00
2023-04-18T08:39:33.881Z,95218.00
2023-04-18T08:40:33.917Z,95214.00
2023-04-18T08:41:34.081Z,95210.00
2023-04-18T08:42:34.032Z,95208.00
2023-04-18T08:43:34.109Z,95212.00
2023-04-18T08:44:34.153Z,95212.00
2023-04-18T08:45:34.284Z,95214.00
2023-04-18T08:46:34.588Z,95214.00
2023-04-18T08:47:34.367Z,95214.00
2023-04-18T08:48:34.385Z,95218.00
2023-04-18T08:49:34.359Z,95218.00
2023-04-18T08:50:34.389Z,95220.00
2023-04-18T08:51:34.598Z,95220.00
2023-04-18T08:52:34.445Z,95218.00
2023-04-18T08:53:34.448Z,95214.00
2023-04-18T08:54:34.441Z,95218.00
2023-04-18T08:55:34.400Z,95216.00
2023-04-18T08:56:34.628Z,95220.00
2023-04-18T08:57:34.414Z,95218.00
2023-04-18T08:58:34.407Z,95216.00
2023-04-18T08:59:34.415Z,95216.00
2023-04-18T09:00:34.414Z,95218.00
2023-04-18T09:01:34.459Z,95222.00
2023-04-18T09:02:34.478Z,95216.00
2023-04-18T09:03:34.464Z,95216.00
2023-04-18T09:04:34.467Z,95218.00
2023-04-18T09:05:34.412Z,95216.00
2023-04-18T09:06:34.611Z,95218.00
2023-04-18T09:07:34.389Z,95220.00
2023-04-18T09:08:34.387Z,95214.00
2023-04-18T09:09:34.430Z,95216.00
2023-04-18T09:10:34.435Z,95214.00
2023-04-18T09:11:34.438Z,95214.00
2023-04-18T09:12:34.423Z,95212.00
2023-04-18T09:13:34.417Z,95216.00
2023-04-18T09:14:34.390Z,95216.00
2023-04-18T09:15:34.444Z,95212.00
2023-04-18T09:16:34.496Z,95212.00
2023-04-18T09:17:34.514Z,95208.00
2023-04-18T09:18:34.390Z,95210.00
2023-04-18T09:19:34.694Z,95210.00
2023-04-18T09:20:34.561Z,95206.00
2023-04-18T09:21:34.404Z,95206.00
2023-04-18T09:22:34.409Z,95204.00
2023-04-18T09:23:34.423Z,95204.00
2023-04-18T09:24:34.477Z,95202.00
2023-04-18T09:25:34.509Z,95202.00
2023-04-18T09:26:34.426Z,95202.00
2023-04-18T09:27:34.419Z,95200.00
2023-04-18T09:28:34.415Z,95200.00
2023-04-18T09:29:34.400Z,95197.00
2023-04-18T09:30:34.439Z,95200.00
2023-04-18T09:31:34.806Z,95199.00
2023-04-18T09:32:34.424Z,95199.00
2023-04-18T09:33:34.409Z,95195.00
2023-04-18T09:34:34.416Z,95193.00
2023-04-18T09:35:34.472Z,95195.00
2023-04-18T09:36:34.676Z,95193.00
2023-04-18T09:37:34.402Z,95195.00
2023-04-18T09:38:34.383Z,95193.00
2023-04-18T09:39:34.412Z,95189.00
2023-04-18T09:40:34.402Z,95185.00
2023-04-18T09:41:34.647Z,95189.00
2023-04-18T09:42:34.386Z,95189.00
2023-04-18T09:43:34.367Z,95189.00
2023-04-18T09:44:34.364Z,95191.00
2023-04-18T09:45:34.411Z,95189.00
2023-04-18T09:46:34.569Z,95189.00
2023-04-18T09:47:34.429Z,95185.00
2023-04-18T09:48:34.418Z,95185.00
2023-04-18T09:49:34.415Z,95185.00
2023-04-18T09:50:34.498Z,95183.00
2023-04-18T09:51:34.692Z,95187.00
2023-04-18T09:52:34.600Z,95191.00
2023-04-18T09:53:34.649Z,95189.00
2023-04-18T09:54:34.730Z,95185.00
2023-04-18T09:55:34.767Z,95187.00
2023-04-18T09:56:34.809Z,95189.00
2023-04-18T09:57:34.892Z,95189.00
2023-04-18T09:58:34.955Z,95187.00
2023-04-18T09:59:34.998Z,95189.00
2023-04-18T10:00:35.070Z,95185.00
2023-04-18T10:01:35.136Z,95183.00
2023-04-18T10:02:35.247Z,95185.00
2023-04-18T10:03:35.330Z,95181.00
2023-04-18T10:04:35.584Z,95185.00
2023-04-18T10:05:35.263Z,95181.00
2023-04-18T10:06:35.283Z,95185.00
2023-04-18T10:07:35.657Z,95181.00
2023-04-18T10:08:35.369Z,95179.00
2023-04-18T10:09:35.410Z,95179.00
2023-04-18T10:10:35.427Z,95179.00
2023-04-18T10:11:35.463Z,95177.00
2023-04-18T10:12:35.487Z,95175.00
2023-04-18T10:13:35.509Z,95173.00
2023-04-18T10:14:35.555Z,95173.00
2023-04-18T10:15:35.624Z,95171.00
2023-04-18T10:16:36.426Z,95165.00
2023-04-18T10:17:35.644Z,95165.00
2023-04-18T10:18:35.694Z,95163.00
2023-04-18T10:19:35.692Z,95167.00
2023-04-18T10:20:35.876Z,95163.00
2023-04-18T10:21:35.724Z,95167.00
2023-04-18T10:22:35.732Z,95165.00
2023-04-18T10:23:35.820Z,95161.00
2023-04-18T10:24:35.784Z,95163.00
2023-04-18T10:25:35.782Z,95161.00
2023-04-18T10:26:35.818Z,95161.00
2023-04-18T10:27:35.823Z,95161.00
2023-04-18T10:28:35.824Z,95163.00
2023-04-18T10:29:35.860Z,95159.00
2023-04-18T10:30:35.863Z,95161.00
2023-04-18T10:31:35.945Z,95155.00
2023-04-18T10:32:35.869Z,95151.00
2023-04-18T10:33:35.993Z,95151.00
2023-04-18T10:34:36.918Z,95138.00
2023-04-18T10:35:35.903Z,95149.00
2023-04-18T10:36:36.174Z,95142.00
2023-04-18T10:37:35.875Z,95149.00
2023-04-18T10:38:35.908Z,95142.00
2023-04-18T10:39:35.859Z,95138.00
2023-04-18T10:40:35.829Z,95138.00
2023-04-18T10:41:35.856Z,95136.00
2023-04-18T10:42:35.839Z,95136.00
2023-04-18T10:43:35.823Z,95138.00
2023-04-18T10:44:35.810Z,95138.00
2023-04-18T10:45:35.831Z,95134.00
2023-04-18T10:46:35.834Z,95130.00
2023-04-18T10:47:35.942Z,95134.00
2023-04-18T10:48:38.621Z,95126.00
2023-04-18T10:49:35.768Z,95130.00
2023-04-18T10:50:35.755Z,95132.00
2023-04-18T10:51:36.188Z,95130.00
2023-04-18T10:52:35.897Z,95130.00
2023-04-18T10:53:35.824Z,95126.00
2023-04-18T10:54:35.828Z,95128.00
2023-04-18T10:55:35.907Z,95128.00
2023-04-18T10:56:35.781Z,95128.00
2023-04-18T10:57:35.737Z,95124.00
2023-04-18T10:58:35.740Z,95128.00
2023-04-18T10:59:35.702Z,95122.00
2023-04-18T11:00:35.728Z,95118.00
2023-04-18T11:01:35.776Z,95122.00
2023-04-18T11:02:35.768Z,95120.00
2023-04-18T11:03:35.880Z,95116.00
2023-04-18T11:04:35.697Z,95116.00
2023-04-18T11:05:35.720Z,95114.00
2023-04-18T11:06:35.676Z,95110.00
2023-04-18T11:07:35.662Z,95108.00
2023-04-18T11:08:35.858Z,95110.00
2023-04-18T11:09:35.661Z,95108.00
2023-04-18T11:10:35.652Z,95112.00
2023-04-18T11:11:35.642Z,95110.00
2023-04-18T11:12:36.374Z,95106.00
2023-04-18T11:13:35.645Z,95104.00
2023-04-18T11:14:35.635Z,95104.00
2023-04-18T11:15:35.600Z,95098.00
2023-04-18T11:16:35.695Z,95098.00
2023-04-18T11:17:35.628Z,95098.00
2023-04-18T11:18:35.608Z,95096.00
2023-04-18T11:19:35.591Z,95102.00
2023-04-18T11:20:35.569Z,95098.00
2023-04-18T11:21:35.668Z,95091.00
2023-04-18T11:22:35.586Z,95095.00
2023-04-18T11:23:35.542Z,95093.00
2023-04-18T11:24:35.602Z,95093.00
2023-04-18T11:25:35.512Z,95087.00
2023-04-18T11:26:36.226Z,95091.00
2023-04-18T11:27:35.614Z,95095.00
2023-04-18T11:28:35.513Z,95091.00
2023-04-18T11:29:35.513Z,95091.00
2023-04-18T11:30:35.484Z,95091.00
2023-04-18T11:31:35.614Z,95091.00
2023-04-18T11:32:35.755Z,95089.00
2023-04-18T11:33:35.511Z,95089.00
2023-04-18T11:34:35.465Z,95089.00
2023-04-18T11:35:35.448Z,95093.00
2023-04-18T11:36:35.472Z,95091.00
2023-04-18T11:37:35.688Z,95085.00
2023-04-18T11:38:35.470Z,95087.00
2023-04-18T11:39:35.456Z,95083.00
2023-04-18T11:40:35.471Z,95089.00
2023-04-18T11:41:35.471Z,95085.00
2023-04-18T11:42:35.482Z,95089.00
2023-04-18T11:43:35.417Z,95087.00
2023-04-18T11:44:36.352Z,95089.00